sensor_id;sensor_type;location;lat;lon;timestamp;P1;durP1;ratioP1;P2;durP2;ratioP2
4756;SDS011;2392;52.578;13.426;2023-01-13T00:00:01;1.00;;;0.87;;
4756;SDS011;2392;52.578;13.426;2023-01-13T00:02:36;2.07;;;1.10;;
4756;SDS011;2392;52.578;13.426;2023-01-13T00:05:04;1.00;;;1.00;;
4756;SDS011;2392;52.578;13.426;2023-01-13T00:07:31;0.70;;;0.70;;
4756;SDS011;2392;52.578;13.426;2023-01-13T00:09:58;1.10;;;0.80;;
4756;SDS011;2392;52.578;13.426;2023-01-13T00:12:25;1.10;;;1.10;;
4756;SDS011;2392;52.578;13.426;2023-01-13T00:14:52;1.93;;;1.03;;
4756;SDS011;2392;52.578;13.426;2023-01-13T00:17:21;0.80;;;0.80;;
4756;SDS011;2392;52.578;13.426;2023-01-13T00:19:48;1.20;;;1.10;;
4756;SDS011;2392;52.578;13.426;2023-01-13T00:22:15;1.70;;;1.17;;
4756;SDS011;2392;52.578;13.426;2023-01-13T00:24:42;1.20;;;1.10;;
4756;SDS011;2392;52.578;13.426;2023-01-13T00:27:09;0.67;;;0.67;;
4756;SDS011;2392;52.578;13.426;2023-01-13T00:29:36;0.67;;;0.67;;
4756;SDS011;2392;52.578;13.426;2023-01-13T00:32:03;0.63;;;0.63;;
4756;SDS011;2392;52.578;13.426;2023-01-13T00:34:31;0.73;;;0.63;;
4756;SDS011;2392;52.578;13.426;2023-01-13T00:36:58;0.60;;;0.60;;
4756;SDS011;2392;52.578;13.426;2023-01-13T00:39:25;0.60;;;0.60;;
4756;SDS011;2392;52.578;13.426;2023-01-13T00:41:52;0.90;;;0.70;;
4756;SDS011;2392;52.578;13.426;2023-01-13T00:44:37;1.10;;;0.70;;
4756;SDS011;2392;52.578;13.426;2023-01-13T00:47:04;0.63;;;0.63;;
4756;SDS011;2392;52.578;13.426;2023-01-13T00:49:32;2.60;;;0.70;;
4756;SDS011;2392;52.578;13.426;2023-01-13T00:51:59;0.50;;;0.50;;
4756;SDS011;2392;52.578;13.426;2023-01-13T00:54:26;0.70;;;0.50;;
4756;SDS011;2392;52.578;13.426;2023-01-13T00:56:53;2.10;;;0.70;;
4756;SDS011;2392;52.578;13.426;2023-01-13T00:59:20;0.60;;;0.60;;
4756;SDS011;2392;52.578;13.426;2023-01-13T01:01:48;1.07;;;0.77;;
4756;SDS011;2392;52.578;13.426;2023-01-13T01:04:15;0.77;;;0.70;;
4756;SDS011;2392;52.578;13.426;2023-01-13T01:06:43;0.60;;;0.60;;
4756;SDS011;2392;52.578;13.426;2023-01-13T01:09:10;0.90;;;0.90;;
4756;SDS011;2392;52.578;13.426;2023-01-13T01:11:39;0.67;;;0.50;;
4756;SDS011;2392;52.578;13.426;2023-01-13T01:14:08;0.60;;;0.60;;
4756;SDS011;2392;52.578;13.426;2023-01-13T01:16:37;0.70;;;0.70;;
4756;SDS011;2392;52.578;13.426;2023-01-13T01:19:06;3.40;;;0.50;;
4756;SDS011;2392;52.578;13.426;2023-01-13T01:21:33;0.70;;;0.70;;
4756;SDS011;2392;52.578;13.426;2023-01-13T01:24:02;1.80;;;0.50;;
4756;SDS011;2392;52.578;13.426;2023-01-13T01:26:30;0.50;;;0.50;;
4756;SDS011;2392;52.578;13.426;2023-01-13T01:28:58;1.03;;;0.50;;
4756;SDS011;2392;52.578;13.426;2023-01-13T01:31:26;1.10;;;0.90;;
4756;SDS011;2392;52.578;13.426;2023-01-13T01:33:55;0.70;;;0.70;;
4756;SDS011;2392;52.578;13.426;2023-01-13T01:36:23;0.70;;;0.70;;
4756;SDS011;2392;52.578;13.426;2023-01-13T01:38:54;0.60;;;0.60;;
4756;SDS011;2392;52.578;13.426;2023-01-13T01:41:23;1.03;;;0.70;;
4756;SDS011;2392;52.578;13.426;2023-01-13T01:43:52;0.70;;;0.70;;
4756;SDS011;2392;52.578;13.426;2023-01-13T01:46:31;3.90;;;0.60;;
4756;SDS011;2392;52.578;13.426;2023-01-13T01:49:04;0.50;;;0.50;;
4756;SDS011;2392;52.578;13.426;2023-01-13T01:51:38;1.03;;;0.93;;
4756;SDS011;2392;52.578;13.426;2023-01-13T01:54:09;0.60;;;0.60;;
4756;SDS011;2392;52.578;13.426;2023-01-13T01:56:40;0.60;;;0.60;;
4756;SDS011;2392;52.578;13.426;2023-01-13T01:59:10;0.70;;;0.70;;
4756;SDS011;2392;52.578;13.426;2023-01-13T02:01:37;0.93;;;0.60;;
4756;SDS011;2392;52.578;13.426;2023-01-13T02:04:08;0.80;;;0.60;;
4756;SDS011;2392;52.578;13.426;2023-01-13T02:06:38;0.73;;;0.73;;
4756;SDS011;2392;52.578;13.426;2023-01-13T02:09:06;0.60;;;0.60;;
4756;SDS011;2392;52.578;13.426;2023-01-13T02:11:34;0.73;;;0.50;;
4756;SDS011;2392;52.578;13.426;2023-01-13T02:14:21;1.10;;;1.10;;
4756;SDS011;2392;52.578;13.426;2023-01-13T02:16:53;0.60;;;0.60;;
4756;SDS011;2392;52.578;13.426;2023-01-13T02:22:36;0.80;;;0.70;;
4756;SDS011;2392;52.578;13.426;2023-01-13T02:25:32;1.00;;;0.60;;
4756;SDS011;2392;52.578;13.426;2023-01-13T02:28:30;0.83;;;0.70;;
4756;SDS011;2392;52.578;13.426;2023-01-13T02:31:29;0.40;;;0.40;;
4756;SDS011;2392;52.578;13.426;2023-01-13T02:34:09;4.37;;;1.67;;
4756;SDS011;2392;52.578;13.426;2023-01-13T02:36:42;0.53;;;0.53;;
4756;SDS011;2392;52.578;13.426;2023-01-13T02:39:18;0.50;;;0.50;;
4756;SDS011;2392;52.578;13.426;2023-01-13T02:41:51;0.57;;;0.57;;
4756;SDS011;2392;52.578;13.426;2023-01-13T02:44:41;1.70;;;0.50;;
4756;SDS011;2392;52.578;13.426;2023-01-13T02:47:15;0.57;;;0.50;;
4756;SDS011;2392;52.578;13.426;2023-01-13T02:49:45;0.53;;;0.53;;
4756;SDS011;2392;52.578;13.426;2023-01-13T02:52:17;0.50;;;0.50;;
4756;SDS011;2392;52.578;13.426;2023-01-13T02:54:50;0.40;;;0.40;;
4756;SDS011;2392;52.578;13.426;2023-01-13T02:57:20;0.70;;;0.60;;
4756;SDS011;2392;52.578;13.426;2023-01-13T02:59:49;0.50;;;0.50;;
4756;SDS011;2392;52.578;13.426;2023-01-13T03:02:20;0.63;;;0.63;;
4756;SDS011;2392;52.578;13.426;2023-01-13T03:04:51;1.50;;;0.60;;
4756;SDS011;2392;52.578;13.426;2023-01-13T03:07:24;0.40;;;0.40;;
4756;SDS011;2392;52.578;13.426;2023-01-13T03:10:10;0.50;;;0.50;;
4756;SDS011;2392;52.578;13.426;2023-01-13T03:12:49;0.70;;;0.70;;
4756;SDS011;2392;52.578;13.426;2023-01-13T03:15:22;0.53;;;0.53;;
4756;SDS011;2392;52.578;13.426;2023-01-13T03:18:05;0.50;;;0.50;;
4756;SDS011;2392;52.578;13.426;2023-01-13T03:20:41;0.60;;;0.60;;
4756;SDS011;2392;52.578;13.426;2023-01-13T03:23:14;0.80;;;0.70;;
4756;SDS011;2392;52.578;13.426;2023-01-13T03:25:45;0.73;;;0.50;;
4756;SDS011;2392;52.578;13.426;2023-01-13T03:28:22;0.40;;;0.40;;
4756;SDS011;2392;52.578;13.426;2023-01-13T03:30:54;0.40;;;0.40;;
4756;SDS011;2392;52.578;13.426;2023-01-13T03:33:28;0.50;;;0.50;;
4756;SDS011;2392;52.578;13.426;2023-01-13T03:36:01;0.57;;;0.57;;
4756;SDS011;2392;52.578;13.426;2023-01-13T03:38:32;1.10;;;0.63;;
4756;SDS011;2392;52.578;13.426;2023-01-13T03:41:04;0.50;;;0.50;;
4756;SDS011;2392;52.578;13.426;2023-01-13T03:43:33;0.80;;;0.60;;
4756;SDS011;2392;52.578;13.426;2023-01-13T03:46:30;3.40;;;0.90;;
4756;SDS011;2392;52.578;13.426;2023-01-13T03:49:03;0.67;;;0.50;;
4756;SDS011;2392;52.578;13.426;2023-01-13T03:51:32;0.50;;;0.50;;
4756;SDS011;2392;52.578;13.426;2023-01-13T03:54:04;1.40;;;0.70;;
4756;SDS011;2392;52.578;13.426;2023-01-13T03:56:37;0.50;;;0.50;;
4756;SDS011;2392;52.578;13.426;2023-01-13T03:59:06;0.40;;;0.40;;
4756;SDS011;2392;52.578;13.426;2023-01-13T04:01:40;0.50;;;0.50;;
4756;SDS011;2392;52.578;13.426;2023-01-13T04:04:15;0.60;;;0.60;;
4756;SDS011;2392;52.578;13.426;2023-01-13T04:06:46;0.63;;;0.50;;
4756;SDS011;2392;52.578;13.426;2023-01-13T04:09:21;0.83;;;0.67;;
4756;SDS011;2392;52.578;13.426;2023-01-13T04:11:56;0.50;;;0.50;;
4756;SDS011;2392;52.578;13.426;2023-01-13T04:14:28;0.70;;;0.70;;
4756;SDS011;2392;52.578;13.426;2023-01-13T04:16:56;0.53;;;0.53;;
4756;SDS011;2392;52.578;13.426;2023-01-13T04:19:24;0.60;;;0.60;;
4756;SDS011;2392;52.578;13.426;2023-01-13T04:21:51;1.17;;;0.60;;
4756;SDS011;2392;52.578;13.426;2023-01-13T04:24:18;0.93;;;0.60;;
4756;SDS011;2392;52.578;13.426;2023-01-13T04:26:45;0.50;;;0.50;;
4756;SDS011;2392;52.578;13.426;2023-01-13T04:29:12;0.90;;;0.60;;
4756;SDS011;2392;52.578;13.426;2023-01-13T04:31:39;0.53;;;0.53;;
4756;SDS011;2392;52.578;13.426;2023-01-13T04:34:07;0.50;;;0.50;;
4756;SDS011;2392;52.578;13.426;2023-01-13T04:36:36;0.80;;;0.70;;
4756;SDS011;2392;52.578;13.426;2023-01-13T04:39:03;1.47;;;0.50;;
4756;SDS011;2392;52.578;13.426;2023-01-13T04:41:30;0.50;;;0.50;;
4756;SDS011;2392;52.578;13.426;2023-01-13T04:44:18;0.83;;;0.50;;
4756;SDS011;2392;52.578;13.426;2023-01-13T04:46:45;1.17;;;0.60;;
4756;SDS011;2392;52.578;13.426;2023-01-13T04:49:12;0.63;;;0.50;;
4756;SDS011;2392;52.578;13.426;2023-01-13T04:51:40;0.43;;;0.43;;
4756;SDS011;2392;52.578;13.426;2023-01-13T04:54:08;0.50;;;0.50;;
4756;SDS011;2392;52.578;13.426;2023-01-13T04:56:35;2.77;;;0.70;;
4756;SDS011;2392;52.578;13.426;2023-01-13T04:59:02;0.60;;;0.60;;
4756;SDS011;2392;52.578;13.426;2023-01-13T05:01:29;1.00;;;0.50;;
4756;SDS011;2392;52.578;13.426;2023-01-13T05:03:56;0.40;;;0.40;;
4756;SDS011;2392;52.578;13.426;2023-01-13T05:06:23;0.50;;;0.50;;
4756;SDS011;2392;52.578;13.426;2023-01-13T05:08:51;0.50;;;0.50;;
4756;SDS011;2392;52.578;13.426;2023-01-13T05:11:18;0.50;;;0.50;;
4756;SDS011;2392;52.578;13.426;2023-01-13T05:14:03;0.57;;;0.53;;
4756;SDS011;2392;52.578;13.426;2023-01-13T05:16:48;1.03;;;0.83;;
4756;SDS011;2392;52.578;13.426;2023-01-13T05:19:25;2.47;;;0.60;;
4756;SDS011;2392;52.578;13.426;2023-01-13T05:21:52;0.50;;;0.50;;
4756;SDS011;2392;52.578;13.426;2023-01-13T05:24:38;0.80;;;0.40;;
4756;SDS011;2392;52.578;13.426;2023-01-13T05:27:22;0.97;;;0.60;;
4756;SDS011;2392;52.578;13.426;2023-01-13T05:29:49;0.83;;;0.43;;
4756;SDS011;2392;52.578;13.426;2023-01-13T05:32:17;0.50;;;0.50;;
4756;SDS011;2392;52.578;13.426;2023-01-13T05:34:44;0.60;;;0.60;;
4756;SDS011;2392;52.578;13.426;2023-01-13T05:37:10;1.90;;;1.00;;
4756;SDS011;2392;52.578;13.426;2023-01-13T05:39:39;1.43;;;0.90;;
4756;SDS011;2392;52.578;13.426;2023-01-13T05:42:20;1.47;;;0.60;;
4756;SDS011;2392;52.578;13.426;2023-01-13T05:45:05;0.60;;;0.60;;
4756;SDS011;2392;52.578;13.426;2023-01-13T05:47:32;0.67;;;0.67;;
4756;SDS011;2392;52.578;13.426;2023-01-13T05:49:59;0.50;;;0.50;;
4756;SDS011;2392;52.578;13.426;2023-01-13T05:52:26;1.80;;;0.60;;
4756;SDS011;2392;52.578;13.426;2023-01-13T05:54:55;0.50;;;0.50;;
4756;SDS011;2392;52.578;13.426;2023-01-13T05:57:22;0.80;;;0.60;;
4756;SDS011;2392;52.578;13.426;2023-01-13T05:59:49;1.10;;;0.83;;
4756;SDS011;2392;52.578;13.426;2023-01-13T06:02:16;1.00;;;0.80;;
4756;SDS011;2392;52.578;13.426;2023-01-13T06:04:43;2.17;;;1.00;;
4756;SDS011;2392;52.578;13.426;2023-01-13T06:07:10;0.90;;;0.77;;
4756;SDS011;2392;52.578;13.426;2023-01-13T06:09:37;1.27;;;0.80;;
4756;SDS011;2392;52.578;13.426;2023-01-13T06:12:07;0.97;;;0.80;;
4756;SDS011;2392;52.578;13.426;2023-01-13T06:14:36;2.10;;;1.00;;
4756;SDS011;2392;52.578;13.426;2023-01-13T06:17:05;7.87;;;2.67;;
4756;SDS011;2392;52.578;13.426;2023-01-13T06:19:33;5.57;;;1.20;;
4756;SDS011;2392;52.578;13.426;2023-01-13T06:22:01;4.37;;;1.00;;
4756;SDS011;2392;52.578;13.426;2023-01-13T06:24:34;2.40;;;1.40;;
4756;SDS011;2392;52.578;13.426;2023-01-13T06:27:02;3.53;;;1.03;;
4756;SDS011;2392;52.578;13.426;2023-01-13T06:29:32;2.00;;;1.00;;
4756;SDS011;2392;52.578;13.426;2023-01-13T06:32:00;3.40;;;1.10;;
4756;SDS011;2392;52.578;13.426;2023-01-13T06:34:31;0.90;;;0.90;;
4756;SDS011;2392;52.578;13.426;2023-01-13T06:36:59;3.57;;;1.90;;
4756;SDS011;2392;52.578;13.426;2023-01-13T06:39:28;4.10;;;1.00;;
4756;SDS011;2392;52.578;13.426;2023-01-13T06:41:57;3.50;;;1.50;;
4756;SDS011;2392;52.578;13.426;2023-01-13T06:44:43;2.37;;;1.40;;
4756;SDS011;2392;52.578;13.426;2023-01-13T06:47:11;5.73;;;1.60;;
4756;SDS011;2392;52.578;13.426;2023-01-13T06:49:38;1.83;;;1.30;;
4756;SDS011;2392;52.578;13.426;2023-01-13T06:52:05;2.30;;;1.70;;
4756;SDS011;2392;52.578;13.426;2023-01-13T06:54:32;2.90;;;1.50;;
4756;SDS011;2392;52.578;13.426;2023-01-13T06:56:59;1.90;;;1.50;;
4756;SDS011;2392;52.578;13.426;2023-01-13T06:59:26;3.23;;;1.50;;
4756;SDS011;2392;52.578;13.426;2023-01-13T07:01:55;5.10;;;1.30;;
4756;SDS011;2392;52.578;13.426;2023-01-13T07:04:22;1.37;;;1.27;;
4756;SDS011;2392;52.578;13.426;2023-01-13T07:06:49;0.83;;;0.83;;
4756;SDS011;2392;52.578;13.426;2023-01-13T07:09:16;4.57;;;1.10;;
4756;SDS011;2392;52.578;13.426;2023-01-13T07:11:43;0.80;;;0.80;;
4756;SDS011;2392;52.578;13.426;2023-01-13T07:14:10;0.90;;;0.90;;
4756;SDS011;2392;52.578;13.426;2023-01-13T07:16:56;2.90;;;1.10;;
4756;SDS011;2392;52.578;13.426;2023-01-13T07:19:23;0.80;;;0.80;;
4756;SDS011;2392;52.578;13.426;2023-01-13T07:21:50;1.03;;;1.00;;
4756;SDS011;2392;52.578;13.426;2023-01-13T07:24:18;0.70;;;0.70;;
4756;SDS011;2392;52.578;13.426;2023-01-13T07:26:46;1.40;;;0.60;;
4756;SDS011;2392;52.578;13.426;2023-01-13T07:29:13;0.90;;;0.90;;
4756;SDS011;2392;52.578;13.426;2023-01-13T07:31:40;1.20;;;0.80;;
4756;SDS011;2392;52.578;13.426;2023-01-13T07:34:08;0.93;;;0.93;;
4756;SDS011;2392;52.578;13.426;2023-01-13T07:36:35;2.20;;;0.97;;
4756;SDS011;2392;52.578;13.426;2023-01-13T07:39:03;0.60;;;0.60;;
4756;SDS011;2392;52.578;13.426;2023-01-13T07:41:30;1.43;;;0.83;;
4756;SDS011;2392;52.578;13.426;2023-01-13T07:44:14;1.07;;;0.67;;
4756;SDS011;2392;52.578;13.426;2023-01-13T07:46:41;0.80;;;0.60;;
4756;SDS011;2392;52.578;13.426;2023-01-13T07:49:10;1.53;;;0.60;;
4756;SDS011;2392;52.578;13.426;2023-01-13T07:51:38;2.77;;;0.77;;
4756;SDS011;2392;52.578;13.426;2023-01-13T07:54:06;0.80;;;0.80;;
4756;SDS011;2392;52.578;13.426;2023-01-13T07:56:33;1.13;;;0.67;;
4756;SDS011;2392;52.578;13.426;2023-01-13T07:59:00;0.60;;;0.50;;
4756;SDS011;2392;52.578;13.426;2023-01-13T08:01:27;0.60;;;0.60;;
4756;SDS011;2392;52.578;13.426;2023-01-13T08:03:56;1.60;;;0.60;;
4756;SDS011;2392;52.578;13.426;2023-01-13T08:06:25;2.60;;;0.73;;
4756;SDS011;2392;52.578;13.426;2023-01-13T08:08:52;0.60;;;0.60;;
4756;SDS011;2392;52.578;13.426;2023-01-13T08:11:19;0.80;;;0.80;;
4756;SDS011;2392;52.578;13.426;2023-01-13T08:13:46;0.50;;;0.50;;
4756;SDS011;2392;52.578;13.426;2023-01-13T08:16:13;3.47;;;0.97;;
4756;SDS011;2392;52.578;13.426;2023-01-13T08:18:41;8.60;;;1.17;;
4756;SDS011;2392;52.578;13.426;2023-01-13T08:21:09;2.40;;;1.10;;
4756;SDS011;2392;52.578;13.426;2023-01-13T08:23:39;2.93;;;1.40;;
4756;SDS011;2392;52.578;13.426;2023-01-13T08:26:08;1.00;;;0.73;;
4756;SDS011;2392;52.578;13.426;2023-01-13T08:28:36;0.80;;;0.70;;
4756;SDS011;2392;52.578;13.426;2023-01-13T08:31:05;1.27;;;1.03;;
4756;SDS011;2392;52.578;13.426;2023-01-13T08:33:33;1.93;;;0.60;;
4756;SDS011;2392;52.578;13.426;2023-01-13T08:36:01;0.73;;;0.70;;
4756;SDS011;2392;52.578;13.426;2023-01-13T08:38:29;1.03;;;0.50;;
4756;SDS011;2392;52.578;13.426;2023-01-13T08:40:57;1.30;;;0.70;;
4756;SDS011;2392;52.578;13.426;2023-01-13T08:43:25;0.83;;;0.57;;
4756;SDS011;2392;52.578;13.426;2023-01-13T08:45:55;0.60;;;0.60;;
4756;SDS011;2392;52.578;13.426;2023-01-13T08:48:23;1.23;;;0.60;;
4756;SDS011;2392;52.578;13.426;2023-01-13T08:50:50;0.87;;;0.87;;
4756;SDS011;2392;52.578;13.426;2023-01-13T08:53:18;0.90;;;0.50;;
4756;SDS011;2392;52.578;13.426;2023-01-13T08:55:46;1.53;;;0.70;;
4756;SDS011;2392;52.578;13.426;2023-01-13T08:58:14;0.63;;;0.63;;
4756;SDS011;2392;52.578;13.426;2023-01-13T09:00:41;0.57;;;0.57;;
4756;SDS011;2392;52.578;13.426;2023-01-13T09:03:09;0.57;;;0.57;;
4756;SDS011;2392;52.578;13.426;2023-01-13T09:05:36;0.80;;;0.80;;
4756;SDS011;2392;52.578;13.426;2023-01-13T09:08:03;0.83;;;0.73;;
4756;SDS011;2392;52.578;13.426;2023-01-13T09:10:30;1.73;;;0.80;;
4756;SDS011;2392;52.578;13.426;2023-01-13T09:12:57;0.70;;;0.70;;
4756;SDS011;2392;52.578;13.426;2023-01-13T09:15:37;0.90;;;0.90;;
4756;SDS011;2392;52.578;13.426;2023-01-13T09:18:05;2.20;;;0.80;;
4756;SDS011;2392;52.578;13.426;2023-01-13T09:20:32;1.37;;;1.10;;
4756;SDS011;2392;52.578;13.426;2023-01-13T09:22:59;4.23;;;0.97;;
4756;SDS011;2392;52.578;13.426;2023-01-13T09:25:26;12.20;;;1.20;;
4756;SDS011;2392;52.578;13.426;2023-01-13T09:27:53;6.00;;;1.00;;
4756;SDS011;2392;52.578;13.426;2023-01-13T09:30:20;1.23;;;0.90;;
4756;SDS011;2392;52.578;13.426;2023-01-13T09:32:48;1.77;;;0.90;;
4756;SDS011;2392;52.578;13.426;2023-01-13T09:35:36;3.77;;;0.80;;
4756;SDS011;2392;52.578;13.426;2023-01-13T09:38:02;3.97;;;1.20;;
4756;SDS011;2392;52.578;13.426;2023-01-13T09:40:30;2.03;;;0.90;;
4756;SDS011;2392;52.578;13.426;2023-01-13T09:42:59;1.23;;;1.13;;
4756;SDS011;2392;52.578;13.426;2023-01-13T09:45:50;5.23;;;1.40;;
4756;SDS011;2392;52.578;13.426;2023-01-13T09:48:23;1.73;;;0.70;;
4756;SDS011;2392;52.578;13.426;2023-01-13T09:50:58;3.73;;;1.30;;
4756;SDS011;2392;52.578;13.426;2023-01-13T09:53:29;4.13;;;1.40;;
4756;SDS011;2392;52.578;13.426;2023-01-13T09:55:59;3.13;;;1.13;;
4756;SDS011;2392;52.578;13.426;2023-01-13T09:58:26;2.63;;;1.00;;
4756;SDS011;2392;52.578;13.426;2023-01-13T10:01:12;2.03;;;0.90;;
4756;SDS011;2392;52.578;13.426;2023-01-13T10:03:46;1.40;;;1.30;;
4756;SDS011;2392;52.578;13.426;2023-01-13T10:06:14;1.33;;;1.10;;
4756;SDS011;2392;52.578;13.426;2023-01-13T10:08:46;1.73;;;0.73;;
4756;SDS011;2392;52.578;13.426;2023-01-13T10:11:15;1.73;;;1.20;;
4756;SDS011;2392;52.578;13.426;2023-01-13T10:14:10;1.33;;;0.80;;
4756;SDS011;2392;52.578;13.426;2023-01-13T10:16:42;1.63;;;0.70;;
4756;SDS011;2392;52.578;13.426;2023-01-13T10:19:17;1.13;;;0.80;;
4756;SDS011;2392;52.578;13.426;2023-01-13T10:24:55;0.60;;;0.50;;
4756;SDS011;2392;52.578;13.426;2023-01-13T10:27:42;1.27;;;0.73;;
4756;SDS011;2392;52.578;13.426;2023-01-13T10:30:21;1.43;;;0.80;;
4756;SDS011;2392;52.578;13.426;2023-01-13T10:32:55;1.40;;;0.87;;
4756;SDS011;2392;52.578;13.426;2023-01-13T10:38:19;1.13;;;0.90;;
4756;SDS011;2392;52.578;13.426;2023-01-13T10:40:48;7.10;;;1.10;;
4756;SDS011;2392;52.578;13.426;2023-01-13T10:43:16;1.90;;;1.10;;
4756;SDS011;2392;52.578;13.426;2023-01-13T10:45:49;1.80;;;1.10;;
4756;SDS011;2392;52.578;13.426;2023-01-13T10:48:21;1.87;;;1.00;;
4756;SDS011;2392;52.578;13.426;2023-01-13T10:50:48;1.33;;;1.10;;
4756;SDS011;2392;52.578;13.426;2023-01-13T10:53:18;0.70;;;0.70;;
4756;SDS011;2392;52.578;13.426;2023-01-13T10:55:58;1.53;;;0.87;;
4756;SDS011;2392;52.578;13.426;2023-01-13T10:58:27;1.43;;;1.00;;
4756;SDS011;2392;52.578;13.426;2023-01-13T11:00:58;2.20;;;0.90;;
4756;SDS011;2392;52.578;13.426;2023-01-13T11:03:33;1.27;;;0.93;;
4756;SDS011;2392;52.578;13.426;2023-01-13T11:06:05;1.13;;;0.80;;
4756;SDS011;2392;52.578;13.426;2023-01-13T11:08:42;3.23;;;0.80;;
4756;SDS011;2392;52.578;13.426;2023-01-13T11:14:05;0.87;;;0.60;;
4756;SDS011;2392;52.578;13.426;2023-01-13T11:17:04;1.43;;;0.90;;
4756;SDS011;2392;52.578;13.426;2023-01-13T11:19:38;0.93;;;0.80;;
4756;SDS011;2392;52.578;13.426;2023-01-13T11:22:09;0.90;;;0.90;;
4756;SDS011;2392;52.578;13.426;2023-01-13T11:24:43;0.90;;;0.80;;
4756;SDS011;2392;52.578;13.426;2023-01-13T11:27:16;0.80;;;0.63;;
4756;SDS011;2392;52.578;13.426;2023-01-13T11:29:52;1.90;;;0.70;;
4756;SDS011;2392;52.578;13.426;2023-01-13T11:32:25;2.80;;;0.90;;
4756;SDS011;2392;52.578;13.426;2023-01-13T11:34:59;4.90;;;0.87;;
4756;SDS011;2392;52.578;13.426;2023-01-13T11:37:30;2.40;;;0.77;;
4756;SDS011;2392;52.578;13.426;2023-01-13T11:40:02;1.50;;;0.90;;
4756;SDS011;2392;52.578;13.426;2023-01-13T11:42:34;2.37;;;1.30;;
4756;SDS011;2392;52.578;13.426;2023-01-13T11:45:08;4.40;;;1.33;;
4756;SDS011;2392;52.578;13.426;2023-01-13T11:47:43;2.30;;;0.90;;
4756;SDS011;2392;52.578;13.426;2023-01-13T11:50:13;5.90;;;1.23;;
4756;SDS011;2392;52.578;13.426;2023-01-13T11:52:53;1.93;;;0.87;;
4756;SDS011;2392;52.578;13.426;2023-01-13T11:55:40;3.67;;;1.30;;
4756;SDS011;2392;52.578;13.426;2023-01-13T11:58:19;1.47;;;1.00;;
4756;SDS011;2392;52.578;13.426;2023-01-13T12:01:07;6.17;;;1.40;;
4756;SDS011;2392;52.578;13.426;2023-01-13T12:03:45;1.60;;;1.07;;
4756;SDS011;2392;52.578;13.426;2023-01-13T12:06:18;2.83;;;1.33;;
4756;SDS011;2392;52.578;13.426;2023-01-13T12:09:02;1.37;;;1.03;;
4756;SDS011;2392;52.578;13.426;2023-01-13T12:11:44;1.43;;;1.00;;
4756;SDS011;2392;52.578;13.426;2023-01-13T12:14:42;1.80;;;1.00;;
4756;SDS011;2392;52.578;13.426;2023-01-13T12:17:21;1.37;;;1.27;;
4756;SDS011;2392;52.578;13.426;2023-01-13T12:20:00;3.87;;;1.50;;
4756;SDS011;2392;52.578;13.426;2023-01-13T12:22:44;4.63;;;1.00;;
4756;SDS011;2392;52.578;13.426;2023-01-13T12:25:15;4.03;;;1.37;;
4756;SDS011;2392;52.578;13.426;2023-01-13T12:27:52;3.23;;;0.80;;
4756;SDS011;2392;52.578;13.426;2023-01-13T12:30:26;4.30;;;1.60;;
4756;SDS011;2392;52.578;13.426;2023-01-13T12:33:02;2.17;;;0.90;;
4756;SDS011;2392;52.578;13.426;2023-01-13T12:35:38;3.30;;;1.30;;
4756;SDS011;2392;52.578;13.426;2023-01-13T12:38:13;3.93;;;1.30;;
4756;SDS011;2392;52.578;13.426;2023-01-13T12:40:49;4.07;;;1.47;;
4756;SDS011;2392;52.578;13.426;2023-01-13T12:43:26;3.20;;;1.07;;
4756;SDS011;2392;52.578;13.426;2023-01-13T12:46:33;3.70;;;1.43;;
4756;SDS011;2392;52.578;13.426;2023-01-13T12:49:17;2.40;;;1.17;;
4756;SDS011;2392;52.578;13.426;2023-01-13T12:57:35;3.87;;;1.20;;
4756;SDS011;2392;52.578;13.426;2023-01-13T13:00:15;5.07;;;1.70;;
4756;SDS011;2392;52.578;13.426;2023-01-13T13:02:42;2.80;;;1.00;;
4756;SDS011;2392;52.578;13.426;2023-01-13T13:05:49;2.97;;;0.97;;
4756;SDS011;2392;52.578;13.426;2023-01-13T13:08:23;5.10;;;1.30;;
4756;SDS011;2392;52.578;13.426;2023-01-13T13:11:10;5.83;;;1.77;;
4756;SDS011;2392;52.578;13.426;2023-01-13T13:13:59;2.23;;;1.30;;
4756;SDS011;2392;52.578;13.426;2023-01-13T13:16:35;1.23;;;1.13;;
4756;SDS011;2392;52.578;13.426;2023-01-13T13:22:16;5.57;;;1.57;;
4756;SDS011;2392;52.578;13.426;2023-01-13T13:27:45;3.20;;;1.20;;
4756;SDS011;2392;52.578;13.426;2023-01-13T13:30:22;4.20;;;1.20;;
4756;SDS011;2392;52.578;13.426;2023-01-13T13:33:01;5.70;;;1.20;;
4756;SDS011;2392;52.578;13.426;2023-01-13T13:35:39;1.83;;;1.40;;
4756;SDS011;2392;52.578;13.426;2023-01-13T13:38:39;2.37;;;1.13;;
4756;SDS011;2392;52.578;13.426;2023-01-13T13:41:35;5.77;;;1.57;;
4756;SDS011;2392;52.578;13.426;2023-01-13T13:44:35;1.83;;;1.07;;
4756;SDS011;2392;52.578;13.426;2023-01-13T13:47:22;4.30;;;1.30;;
4756;SDS011;2392;52.578;13.426;2023-01-13T13:49:51;3.80;;;1.40;;
4756;SDS011;2392;52.578;13.426;2023-01-13T13:52:20;7.90;;;1.47;;
4756;SDS011;2392;52.578;13.426;2023-01-13T13:54:52;4.70;;;2.20;;
4756;SDS011;2392;52.578;13.426;2023-01-13T13:57:31;3.33;;;1.67;;
4756;SDS011;2392;52.578;13.426;2023-01-13T14:00:00;3.63;;;1.60;;
4756;SDS011;2392;52.578;13.426;2023-01-13T14:02:37;5.30;;;2.00;;
4756;SDS011;2392;52.578;13.426;2023-01-13T14:05:14;5.73;;;1.30;;
4756;SDS011;2392;52.578;13.426;2023-01-13T14:07:44;3.53;;;1.30;;
4756;SDS011;2392;52.578;13.426;2023-01-13T14:10:13;5.67;;;1.30;;
4756;SDS011;2392;52.578;13.426;2023-01-13T14:12:43;5.33;;;1.70;;
4756;SDS011;2392;52.578;13.426;2023-01-13T14:15:24;13.10;;;1.90;;
4756;SDS011;2392;52.578;13.426;2023-01-13T14:17:53;3.57;;;1.13;;
4756;SDS011;2392;52.578;13.426;2023-01-13T14:20:21;5.83;;;2.00;;
4756;SDS011;2392;52.578;13.426;2023-01-13T14:22:50;4.00;;;1.87;;
4756;SDS011;2392;52.578;13.426;2023-01-13T14:25:28;6.03;;;1.30;;
4756;SDS011;2392;52.578;13.426;2023-01-13T14:27:58;13.20;;;1.70;;
4756;SDS011;2392;52.578;13.426;2023-01-13T14:30:28;2.50;;;1.03;;
4756;SDS011;2392;52.578;13.426;2023-01-13T14:32:55;4.10;;;1.47;;
4756;SDS011;2392;52.578;13.426;2023-01-13T14:35:25;5.90;;;1.40;;
4756;SDS011;2392;52.578;13.426;2023-01-13T14:37:55;7.90;;;1.93;;
4756;SDS011;2392;52.578;13.426;2023-01-13T14:40:41;5.60;;;1.70;;
4756;SDS011;2392;52.578;13.426;2023-01-13T14:43:12;5.03;;;1.60;;
4756;SDS011;2392;52.578;13.426;2023-01-13T14:45:41;5.80;;;1.73;;
4756;SDS011;2392;52.578;13.426;2023-01-13T14:48:19;3.23;;;1.27;;
4756;SDS011;2392;52.578;13.426;2023-01-13T14:50:49;2.83;;;1.40;;
4756;SDS011;2392;52.578;13.426;2023-01-13T14:53:26;7.77;;;1.20;;
4756;SDS011;2392;52.578;13.426;2023-01-13T14:59:31;10.37;;;1.70;;
4756;SDS011;2392;52.578;13.426;2023-01-13T15:02:26;7.10;;;1.77;;
4756;SDS011;2392;52.578;13.426;2023-01-13T15:08:01;4.23;;;1.67;;
4756;SDS011;2392;52.578;13.426;2023-01-13T15:10:31;7.20;;;1.63;;
4756;SDS011;2392;52.578;13.426;2023-01-13T15:13:02;5.37;;;1.70;;
4756;SDS011;2392;52.578;13.426;2023-01-13T15:15:32;6.20;;;1.60;;
4756;SDS011;2392;52.578;13.426;2023-01-13T15:18:00;3.50;;;1.30;;
4756;SDS011;2392;52.578;13.426;2023-01-13T15:20:33;8.00;;;2.40;;
4756;SDS011;2392;52.578;13.426;2023-01-13T15:23:02;4.27;;;1.13;;
4756;SDS011;2392;52.578;13.426;2023-01-13T15:25:30;6.17;;;1.60;;
4756;SDS011;2392;52.578;13.426;2023-01-13T15:27:58;4.90;;;1.70;;
4756;SDS011;2392;52.578;13.426;2023-01-13T15:30:25;2.70;;;1.23;;
4756;SDS011;2392;52.578;13.426;2023-01-13T15:32:54;2.50;;;1.40;;
4756;SDS011;2392;52.578;13.426;2023-01-13T15:35:23;2.50;;;1.30;;
4756;SDS011;2392;52.578;13.426;2023-01-13T15:37:53;2.67;;;1.63;;
4756;SDS011;2392;52.578;13.426;2023-01-13T15:40:24;4.93;;;1.57;;
4756;SDS011;2392;52.578;13.426;2023-01-13T15:42:54;8.87;;;1.80;;
4756;SDS011;2392;52.578;13.426;2023-01-13T15:45:39;1.80;;;1.03;;
4756;SDS011;2392;52.578;13.426;2023-01-13T15:48:25;3.50;;;1.27;;
4756;SDS011;2392;52.578;13.426;2023-01-13T15:50:54;5.43;;;1.90;;
4756;SDS011;2392;52.578;13.426;2023-01-13T15:53:21;4.07;;;1.40;;
4756;SDS011;2392;52.578;13.426;2023-01-13T15:55:50;9.70;;;2.30;;
4756;SDS011;2392;52.578;13.426;2023-01-13T15:58:21;3.33;;;1.30;;
4756;SDS011;2392;52.578;13.426;2023-01-13T16:00:50;2.40;;;1.30;;